Time;durP1;ratioP1;P1;durP2;ratioP2;P2;SDS_P1;SDS_P2;PMS_P1;PMS_P2;Temp;Humidity;BMP_temperature;BMP_pressure;BME280_temperature;BME280_humidity;BME280_pressure;Samples;Min_cycle;Max_cycle;Signal;HPM_P1;HPM_P2
2023/03/15 00:01:56;;;;;;;8.18;0.52;;;;;;;6.29;67.17;99962.47;12971839;22;20111;-66
2023/03/15 00:06:58;;;;;;;12.85;1.45;;;;;;;6.25;66.86;99966.44;12971091;22;20019;-65
2023/03/15 00:11:59;;;;;;;5.55;0.70;;;;;;;6.12;66.78;99977.53;12970854;22;20062;-65
2023/03/15 00:17:00;;;;;;;5.88;0.88;;;;;;;6.10;66.35;99984.88;12982695;22;20012;-66
2023/03/15 00:22:02;;;;;;;9.98;0.88;;;;;;;5.92;66.01;99992.03;12974417;22;20032;-67
2023/03/15 00:27:04;;;;;;;7.80;0.85;;;;;;;5.74;65.43;100005.38;13033353;22;20062;-65
2023/03/15 00:32:06;;;;;;;3.38;0.50;;;;;;;5.55;65.10;100007.22;13034315;22;20012;-64
2023/03/15 00:37:07;;;;;;;3.58;0.88;;;;;;;5.38;65.23;100012.53;13034751;22;20041;-64
2023/03/15 00:42:09;;;;;;;3.88;0.82;;;;;;;5.27;65.29;100024.22;13034233;22;20024;-64
2023/03/15 00:47:12;;;;;;;7.57;0.75;;;;;;;5.25;64.55;100020.88;13034963;22;20043;-66
2023/03/15 00:52:13;;;;;;;7.43;0.73;;;;;;;5.31;64.80;100030.94;13033991;22;20007;-65
2023/03/15 00:57:14;;;;;;;10.75;1.02;;;;;;;5.28;65.27;100036.59;13033354;22;20046;-66
2023/03/15 01:02:16;;;;;;;3.92;1.08;;;;;;;5.34;65.19;100051.97;13008385;22;20008;-66
2023/03/15 01:07:18;;;;;;;5.57;1.10;;;;;;;5.46;64.87;100064.09;13031549;22;20058;-66
2023/03/15 01:12:19;;;;;;;7.97;0.50;;;;;;;5.43;65.39;100067.09;13033877;22;20026;-66
2023/03/15 01:17:20;;;;;;;4.82;0.60;;;;;;;5.39;65.02;100065.69;13033081;22;20065;-65
2023/03/15 01:22:22;;;;;;;7.28;0.73;;;;;;;5.34;65.36;100074.13;13033216;22;20027;-66
2023/03/15 01:27:23;;;;;;;6.30;1.38;;;;;;;5.32;65.49;100075.28;13033657;22;20155;-65
2023/03/15 01:32:26;;;;;;;10.07;1.63;;;;;;;5.21;65.79;100070.97;13007357;22;20059;-65
2023/03/15 01:37:27;;;;;;;8.48;1.05;;;;;;;5.09;66.41;100082.81;13034560;22;20038;-65
2023/03/15 01:42:28;;;;;;;4.00;0.57;;;;;;;5.03;66.52;100076.25;13033462;22;20023;-65
2023/03/15 01:47:31;;;;;;;5.22;0.55;;;;;;;4.92;66.54;100090.59;13032661;22;20059;-64
2023/03/15 01:52:37;;;;;;;5.03;0.65;;;;;;;4.87;66.96;100087.53;13032596;22;20031;-65
2023/03/15 01:57:48;;;;;;;6.57;0.75;;;;;;;4.87;66.59;100092.00;13029821;22;20094;-65
2023/03/15 02:02:53;;;;;;;3.78;0.70;;;;;;;4.83;67.08;100099.44;13007127;22;20027;-65
2023/03/15 02:07:55;;;;;;;9.43;0.60;;;;;;;4.77;66.98;100110.69;13033023;22;20038;-65
2023/03/15 02:12:57;;;;;;;11.00;1.60;;;;;;;4.82;67.12;100118.22;13032471;22;20024;-65
2023/03/15 02:17:58;;;;;;;7.85;0.70;;;;;;;4.69;67.72;100118.56;13030793;22;20068;-65
2023/03/15 02:23:03;;;;;;;8.02;0.75;;;;;;;4.66;67.73;100118.81;13033653;22;20055;-65
2023/03/15 02:28:09;;;;;;;2.90;0.80;;;;;;;4.67;67.38;100109.88;13005630;22;20103;-65
2023/03/15 02:33:25;;;;;;;8.20;0.70;;;;;;;4.61;67.62;100103.31;13031698;22;20109;-65
2023/03/15 02:38:26;;;;;;;7.97;1.52;;;;;;;4.59;68.15;100109.75;13032044;22;20011;-65
2023/03/15 02:43:31;;;;;;;4.13;0.60;;;;;;;4.51;68.05;100105.16;13032132;22;20007;-66
2023/03/15 02:48:34;;;;;;;6.68;1.40;;;;;;;4.46;68.26;100105.56;13004286;22;20010;-65
2023/03/15 02:53:35;;;;;;;5.32;0.60;;;;;;;4.45;67.89;100121.69;13032230;22;20075;-66
2023/03/15 02:58:37;;;;;;;12.18;1.00;;;;;;;4.43;68.19;100116.50;13032103;22;20089;-64
2023/03/15 03:03:43;;;;;;;14.27;2.08;;;;;;;4.43;68.03;100124.47;13031893;22;20003;-66
2023/03/15 03:08:46;;;;;;;9.38;0.80;;;;;;;4.41;68.34;100125.63;13041432;22;20011;-65
2023/03/15 03:13:47;;;;;;;5.55;1.00;;;;;;;4.39;68.39;100130.25;13032515;22;20022;-65
2023/03/15 03:18:49;;;;;;;5.40;0.70;;;;;;;4.39;68.23;100139.06;13031187;22;20084;-66
2023/03/15 03:23:50;;;;;;;8.75;0.50;;;;;;;4.37;68.14;100141.84;13035438;22;20067;-66
2023/03/15 03:28:52;;;;;;;4.60;1.15;;;;;;;4.39;68.61;100149.69;13034799;22;20023;-65
2023/03/15 03:33:55;;;;;;;4.10;0.47;;;;;;;4.36;68.63;100161.47;13034957;22;20041;-65
2023/03/15 03:38:56;;;;;;;3.17;0.57;;;;;;;4.31;68.71;100176.19;13043436;22;20016;-66
2023/03/15 03:43:58;;;;;;;4.63;0.63;;;;;;;4.31;68.72;100177.00;13007443;22;20297;-66
2023/03/15 03:49:00;;;;;;;5.40;0.65;;;;;;;4.34;68.67;100176.75;13035579;22;20046;-65
2023/03/15 03:54:01;;;;;;;4.30;0.82;;;;;;;4.34;68.89;100176.75;13009119;22;20279;-66
2023/03/15 03:59:02;;;;;;;7.18;0.80;;;;;;;4.43;68.55;100183.03;13047306;22;20032;-65
2023/03/15 04:04:04;;;;;;;7.03;1.10;;;;;;;4.34;68.96;100184.72;13035469;22;20008;-66
2023/03/15 04:09:06;;;;;;;5.57;0.75;;;;;;;4.34;68.64;100200.69;13008015;22;20060;-66
2023/03/15 04:14:09;;;;;;;5.30;1.90;;;;;;;4.29;68.56;100202.09;13009068;22;20008;-64
2023/03/15 04:19:14;;;;;;;10.20;0.88;;;;;;;4.17;69.02;100204.88;13033273;22;20053;-65
2023/03/15 04:24:15;;;;;;;7.28;2.45;;;;;;;4.19;69.12;100199.41;13034641;22;20053;-64
2023/03/15 04:29:17;;;;;;;4.10;0.90;;;;;;;4.11;69.16;100209.91;13034747;22;20063;-65
2023/03/15 04:34:18;;;;;;;9.20;1.15;;;;;;;4.02;69.38;100208.06;13034900;22;20008;-65
2023/03/15 04:39:20;;;;;;;9.70;1.77;;;;;;;4.04;69.44;100222.06;13033904;22;20019;-64
2023/03/15 04:44:25;;;;;;;7.00;1.08;;;;;;;4.02;69.44;100214.22;13034726;22;20050;-65
2023/03/15 04:49:26;;;;;;;4.45;1.08;;;;;;;4.05;69.19;100219.28;13033340;22;20007;-65
2023/03/15 04:54:28;;;;;;;5.18;1.10;;;;;;;4.04;69.55;100228.22;13039816;22;20031;-64
2023/03/15 04:59:30;;;;;;;6.32;1.48;;;;;;;4.09;69.34;100223.34;13033686;22;20011;-64
2023/03/15 05:04:31;;;;;;;5.50;1.10;;;;;;;4.15;69.29;100227.28;13034402;22;20004;-66
2023/03/15 05:09:37;;;;;;;13.35;2.83;;;;;;;4.17;69.25;100217.34;13006200;22;20030;-65
2023/03/15 05:14:40;;;;;;;;;;;;;;;4.20;69.31;100229.50;13043621;22;20062;-65
2023/03/15 05:19:41;;;;;;;3.75;1.20;;;;;;;4.24;69.24;100222.94;13031433;22;19903;-66
2023/03/15 05:24:43;;;;;;;9.32;1.30;;;;;;;4.31;68.95;100234.72;13032799;22;20020;-64
2023/03/15 05:29:44;;;;;;;4.88;1.10;;;;;;;4.27;69.07;100239.47;13006876;22;20081;-66
2023/03/15 05:34:46;;;;;;;5.10;0.95;;;;;;;4.23;69.20;100248.69;13029385;22;20067;-68
2023/03/15 05:39:47;;;;;;;7.72;0.77;;;;;;;4.28;69.39;100245.63;12949369;22;20027;-67
2023/03/15 05:44:49;;;;;;;3.95;0.93;;;;;;;4.31;69.11;100251.50;12971952;22;20488;-67
2023/03/15 05:49:52;;;;;;;10.38;1.25;;;;;;;4.22;69.35;100260.31;12971741;22;20031;-68
2023/03/15 05:54:53;;;;;;;7.22;1.50;;;;;;;4.06;69.49;100266.16;12970907;22;20027;-66
2023/03/15 05:59:55;;;;;;;4.20;1.10;;;;;;;3.85;70.08;100268.03;12969573;22;20614;-64
2023/03/15 06:04:56;;;;;;;8.15;1.58;;;;;;;3.59;70.50;100271.16;12971856;22;20023;-66
2023/03/15 06:09:57;;;;;;;10.02;1.20;;;;;;;3.42;70.33;100261.16;12967779;22;20077;-66
2023/03/15 06:14:59;;;;;;;8.68;1.75;;;;;;;3.28;70.70;100275.59;12968783;22;20082;-66
2023/03/15 06:20:01;;;;;;;7.55;1.42;;;;;;;3.15;71.57;100286.44;12968306;22;20032;-67
2023/03/15 06:25:03;;;;;;;4.93;1.95;;;;;;;3.17;71.60;100292.47;12970797;22;20027;-64
2023/03/15 06:30:05;;;;;;;7.13;1.63;;;;;;;3.08;71.71;100294.09;12972072;22;20055;-67
2023/03/15 06:35:07;;;;;;;9.93;2.10;;;;;;;3.02;72.53;100304.38;12955475;22;20024;-66
2023/03/15 06:40:10;;;;;;;11.10;2.10;;;;;;;3.14;72.92;100312.16;12969983;22;20031;-66
2023/03/15 06:45:12;;;;;;;10.00;2.83;;;;;;;3.23;72.45;100318.50;12977890;22;20035;-65
2023/03/15 06:50:13;;;;;;;8.07;1.83;;;;;;;3.35;72.68;100313.97;12972104;22;20077;-66
2023/03/15 06:55:17;;;;;;;5.40;2.47;;;;;;;3.34;73.45;100322.94;12977389;22;20023;-66
2023/03/15 07:00:19;;;;;;;11.05;3.65;;;;;;;3.40;73.10;100332.16;12945960;22;20422;-66
2023/03/15 07:05:20;;;;;;;14.95;2.78;;;;;;;3.50;73.15;100335.75;12975318;22;20027;-70
2023/03/15 07:10:21;;;;;;;14.70;4.15;;;;;;;3.47;73.91;100330.69;12987297;22;20031;-69
2023/03/15 07:15:23;;;;;;;8.23;3.95;;;;;;;3.47;74.16;100342.16;12958116;22;20015;-68
2023/03/15 07:20:25;;;;;;;16.02;4.13;;;;;;;3.57;73.37;100331.56;12950852;22;20448;-69
2023/03/15 07:25:26;;;;;;;15.20;4.75;;;;;;;3.70;73.80;100342.00;12977891;22;20023;-70
2023/03/15 07:30:28;;;;;;;16.08;4.93;;;;;;;3.74;73.84;100352.25;12982098;22;20020;-68
2023/03/15 07:35:30;;;;;;;12.43;5.93;;;;;;;3.77;74.15;100356.44;12961718;22;20094;-71
2023/03/15 07:40:31;;;;;;;14.60;5.38;;;;;;;3.93;73.78;100359.47;12923144;22;20513;-71
2023/03/15 07:45:33;;;;;;;13.82;6.18;;;;;;;4.09;74.16;100364.31;12922306;22;20012;-70
2023/03/15 07:50:35;;;;;;;9.23;4.85;;;;;;;4.15;74.52;100366.44;12925129;22;20102;-70
2023/03/15 07:55:37;;;;;;;19.55;5.50;;;;;;;4.16;74.47;100365.44;12975559;22;20058;-70
2023/03/15 08:00:38;;;;;;;19.65;6.43;;;;;;;4.17;74.27;100383.09;12981160;22;20023;-70
2023/03/15 08:05:40;;;;;;;16.55;5.68;;;;;;;4.28;74.56;100390.13;12986767;22;20110;-69
2023/03/15 08:10:42;;;;;;;15.50;5.85;;;;;;;4.41;75.13;100391.75;12925186;22;20035;-67
2023/03/15 08:15:46;;;;;;;15.10;5.13;;;;;;;4.61;74.74;100384.66;12983239;22;20088;-67
2023/03/15 08:20:48;;;;;;;17.83;5.93;;;;;;;4.66;75.17;100388.59;12926783;22;20114;-68
2023/03/15 08:25:50;;;;;;;10.50;4.75;;;;;;;4.68;74.35;100389.28;12949842;22;20031;-67
2023/03/15 08:30:51;;;;;;;10.50;4.10;;;;;;;4.62;74.80;100407.59;12980727;22;20828;-68
2023/03/15 08:35:53;;;;;;;15.93;4.03;;;;;;;4.74;74.55;100403.88;12975292;22;20028;-67
2023/03/15 08:40:58;;;;;;;14.85;4.50;;;;;;;4.89;74.02;100418.47;12974616;22;20097;-68
2023/03/15 08:46:00;;;;;;;15.40;4.65;;;;;;;5.06;74.02;100430.28;12948446;22;20027;-68
2023/03/15 08:51:04;;;;;;;13.63;3.92;;;;;;;5.05;73.86;100435.75;12926081;22;20015;-67
2023/03/15 08:56:06;;;;;;;13.25;4.32;;;;;;;5.17;73.97;100439.94;12951506;22;20024;-65
2023/03/15 09:01:13;;;;;;;13.60;3.63;;;;;;;5.38;73.95;100449.66;12949709;22;20031;-66
2023/03/15 09:06:14;;;;;;;11.85;3.47;;;;;;;5.54;74.37;100457.94;12981423;22;20081;-67
2023/03/15 09:11:15;;;;;;;10.15;2.80;;;;;;;5.74;74.37;100458.75;12921593;22;20023;-66
2023/03/15 09:16:19;;;;;;;11.45;2.80;;;;;;;5.85;74.02;100465.78;12947918;22;20027;-67
2023/03/15 09:21:20;;;;;;;8.48;2.63;;;;;;;6.11;74.12;100461.53;12946829;22;20024;-67
2023/03/15 09:26:22;;;;;;;10.65;3.17;;;;;;;6.25;72.95;100460.22;12923219;22;20031;-67
2023/03/15 09:31:23;;;;;;;7.88;2.33;;;;;;;6.39;73.37;100464.25;12976849;22;20077;-66
2023/03/15 09:36:25;;;;;;;6.55;3.13;;;;;;;6.49;73.42;100473.06;12921927;22;20500;-67
2023/03/15 09:41:35;;;;;;;8.15;2.20;;;;;;;6.43;72.92;100494.19;12921055;22;20097;-66
2023/03/15 09:46:55;;;;;;;5.18;1.10;;;;;;;6.48;72.66;100483.91;12973706;22;20528;-65
2023/03/15 09:52:05;;;;;;;3.47;0.70;;;;;;;6.62;71.69;100493.28;12974773;22;20379;-67
2023/03/15 09:57:22;;;;;;;2.40;0.60;;;;;;;6.44;71.16;100499.38;12974163;22;20051;-65
2023/03/15 10:02:27;;;;;;;2.03;1.42;;;;;;;6.57;71.09;100508.91;12985291;22;20029;-64
2023/03/15 10:07:30;;;;;;;3.13;1.35;;;;;;;6.73;70.45;100512.63;12944482;22;20046;-65
2023/03/15 10:12:40;;;;;;;5.28;1.05;;;;;;;6.56;69.47;100524.09;12977536;22;20507;-65
2023/03/15 10:17:59;;;;;;;0.55;0.43;;;;;;;6.53;68.93;100519.84;12968599;22;20101;-67
2023/03/15 10:23:22;;;;;;;1.90;0.80;;;;;;;6.69;68.66;100521.06;12971739;22;20034;-65
2023/03/15 10:28:27;;;;;;;0.93;0.70;;;;;;;6.81;68.99;100521.72;12970060;22;20020;-64
2023/03/15 10:33:34;;;;;;;2.75;0.70;;;;;;;6.74;68.10;100532.16;12969709;22;20019;-65
2023/03/15 10:38:36;;;;;;;0.90;0.70;;;;;;;6.93;67.97;100517.88;12943499;22;20555;-64
2023/03/15 10:43:38;;;;;;;0.63;0.30;;;;;;;7.00;66.09;100521.63;12972741;22;20038;-64
2023/03/15 10:48:55;;;;;;;0.45;0.30;;;;;;;7.13;64.83;100507.94;12972601;22;20054;-65
2023/03/15 10:54:04;;;;;;;0.40;0.30;;;;;;;7.51;64.53;100496.13;12973267;22;20081;-65
2023/03/15 10:59:16;;;;;;;0.75;0.20;;;;;;;7.70;64.62;100503.16;12973636;22;20702;-67
2023/03/15 11:04:22;;;;;;;3.70;0.75;;;;;;;7.68;62.71;100491.78;12971130;22;20093;-67
2023/03/15 11:09:26;;;;;;;0.70;0.30;;;;;;;8.10;62.31;100498.31;12971633;22;20078;-67
2023/03/15 11:14:43;;;;;;;0.20;0.20;;;;;;;8.29;61.70;100508.81;12972870;22;20027;-67
2023/03/15 11:20:09;;;;;;;1.43;0.23;;;;;;;8.62;61.30;100510.88;12970874;22;20042;-67
2023/03/15 11:25:13;;;;;;;0.32;0.20;;;;;;;8.90;60.65;100525.75;12974733;22;20032;-69
2023/03/15 11:30:16;;;;;;;0.60;0.30;;;;;;;9.03;60.50;100527.16;12971514;22;20077;-67
2023/03/15 11:35:29;;;;;;;1.27;0.45;;;;;;;9.14;60.81;100529.53;12984127;22;20106;-66
2023/03/15 11:40:41;;;;;;;0.52;0.50;;;;;;;8.95;59.66;100543.22;12946895;22;20523;-67
2023/03/15 11:46:04;;;;;;;1.73;0.80;;;;;;;8.74;59.84;100539.06;12949991;22;20129;-68
2023/03/15 11:51:09;;;;;;;0.82;0.50;;;;;;;8.88;59.13;100543.00;12975176;22;20020;-67
2023/03/15 11:56:44;;;;;;;1.10;0.47;;;;;;;9.06;58.92;100553.63;12961488;22;20030;-69
2023/03/15 12:01:57;;;;;;;1.35;0.50;;;;;;;9.26;58.77;100557.75;12953825;22;20023;-68
2023/03/15 12:07:02;;;;;;;1.20;0.57;;;;;;;9.01;58.99;100558.66;12935082;22;20648;-68
2023/03/15 12:12:25;;;;;;;1.60;0.82;;;;;;;8.61;58.59;100562.75;12969039;22;20309;-69
2023/03/15 12:17:27;;;;;;;2.13;0.80;;;;;;;8.78;58.69;100556.50;12969295;22;20081;-69
2023/03/15 12:22:32;;;;;;;2.33;0.70;;;;;;;8.77;57.42;100562.88;12958987;22;20027;-68
2023/03/15 12:27:36;;;;;;;0.90;0.40;;;;;;;8.87;55.61;100576.19;12957294;22;20035;-68
2023/03/15 12:32:48;;;;;;;1.17;0.77;;;;;;;9.52;54.94;100579.13;12985914;22;20031;-69
2023/03/15 12:37:52;;;;;;;0.45;0.30;;;;;;;9.59;53.64;100575.78;12930793;22;20424;-68
2023/03/15 12:42:53;;;;;;;3.58;1.88;;;;;;;9.56;53.04;100581.47;12958752;22;20031;-68
2023/03/15 12:47:54;;;;;;;2.10;0.35;;;;;;;9.89;53.05;100587.75;12958361;22;20023;-70
2023/03/15 12:53:00;;;;;;;1.45;0.70;;;;;;;9.80;53.10;100578.00;12956573;22;20027;-68
2023/03/15 12:58:03;;;;;;;1.23;0.57;;;;;;;10.06;51.70;100573.31;12987292;22;20087;-71
2023/03/15 13:03:10;;;;;;;2.30;0.43;;;;;;;10.54;50.82;100568.13;12932886;22;20023;-69
2023/03/15 13:08:27;;;;;;;1.42;0.57;;;;;;;10.92;50.35;100563.00;12946764;22;20024;-70
2023/03/15 13:13:34;;;;;;;2.15;0.73;;;;;;;10.55;49.70;100569.81;12976220;22;20456;-70
2023/03/15 13:18:51;;;;;;;3.03;0.70;;;;;;;10.05;49.27;100573.50;12945179;22;20020;-70
2023/03/15 13:23:56;;;;;;;1.17;0.45;;;;;;;10.14;49.66;100559.06;12945340;22;20074;-70
2023/03/15 13:29:08;;;;;;;0.55;0.28;;;;;;;10.71;49.11;100560.88;12947204;22;20027;-69
2023/03/15 13:34:20;;;;;;;2.22;0.40;;;;;;;11.39;48.70;100559.44;12945141;22;20035;-70
2023/03/15 13:39:29;;;;;;;0.43;0.20;;;;;;;10.82;47.66;100570.41;12919666;22;20095;-69
2023/03/15 13:44:31;;;;;;;4.32;0.40;;;;;;;10.89;47.92;100564.19;12949184;22;20023;-70
2023/03/15 13:49:33;;;;;;;1.23;0.28;;;;;;;10.67;48.01;100555.00;12946052;22;20031;-69
2023/03/15 13:54:35;;;;;;;2.05;0.22;;;;;;;10.64;47.95;100551.81;12985615;22;20026;-69
2023/03/15 13:59:52;;;;;;;2.65;0.28;;;;;;;10.77;46.83;100559.34;12966411;22;20016;-69
2023/03/15 14:05:08;;;;;;;1.42;0.30;;;;;;;10.87;46.16;100560.81;12930867;22;20502;-69
2023/03/15 14:10:15;;;;;;;2.65;0.40;;;;;;;10.77;46.94;100564.72;12956311;22;20023;-70
2023/03/15 14:15:18;;;;;;;2.38;0.30;;;;;;;10.78;46.87;100571.78;12956015;22;20457;-68
2023/03/15 14:20:27;;;;;;;2.25;0.38;;;;;;;10.51;45.27;100566.63;12928348;22;20073;-70
2023/03/15 14:25:34;;;;;;;2.78;0.50;;;;;;;10.58;44.57;100566.78;12982253;22;20028;-69
2023/03/15 14:30:36;;;;;;;0.77;0.53;;;;;;;10.31;43.51;100560.78;12956545;22;20053;-69
2023/03/15 14:35:42;;;;;;;1.50;0.40;;;;;;;10.91;44.13;100566.72;12931346;22;20024;-69
2023/03/15 14:40:44;;;;;;;1.38;0.52;;;;;;;11.63;44.83;100573.78;12931215;22;20019;-69
2023/03/15 14:45:48;;;;;;;1.95;0.30;;;;;;;11.78;44.51;100590.03;12954030;22;20027;-69
2023/03/15 14:50:49;;;;;;;0.47;0.17;;;;;;;11.49;43.20;100589.69;12956046;22;20067;-69
2023/03/15 14:55:51;;;;;;;2.38;0.30;;;;;;;11.67;42.43;100591.25;12957354;22;20027;-71
2023/03/15 15:00:54;;;;;;;0.82;0.40;;;;;;;12.25;42.45;100580.97;12956022;22;20093;-69
2023/03/15 15:05:56;;;;;;;0.40;0.20;;;;;;;12.88;41.06;100589.63;12966659;22;20079;-68
2023/03/15 15:10:58;;;;;;;1.45;0.30;;;;;;;12.46;39.42;100597.28;12998769;22;20648;-70
2023/03/15 15:16:00;;;;;;;5.07;0.70;;;;;;;12.24;39.61;100607.09;12932839;22;20103;-69
2023/03/15 15:21:11;;;;;;;0.95;0.40;;;;;;;12.05;41.34;100611.09;12963320;22;20020;-71
2023/03/15 15:26:18;;;;;;;1.85;0.30;;;;;;;11.84;39.57;100616.25;12992112;22;20032;-70
2023/03/15 15:31:22;;;;;;;2.05;0.40;;;;;;;11.24;38.11;100615.03;12951520;22;20468;-70
2023/03/15 15:36:27;;;;;;;2.13;0.40;;;;;;;11.00;38.68;100613.22;12979704;22;20340;-71
2023/03/15 15:41:31;;;;;;;1.80;0.40;;;;;;;10.73;39.24;100627.94;12979762;22;20027;-71
2023/03/15 15:46:32;;;;;;;3.53;0.70;;;;;;;10.62;39.32;100626.41;12949997;22;20082;-71
2023/03/15 15:51:41;;;;;;;1.00;0.38;;;;;;;10.60;40.05;100633.81;12951406;22;20070;-70
2023/03/15 15:56:54;;;;;;;1.08;0.40;;;;;;;10.56;40.65;100641.38;12926149;22;20418;-71
2023/03/15 16:01:56;;;;;;;3.15;0.55;;;;;;;10.69;40.59;100648.94;12978407;22;20023;-71
2023/03/15 16:07:03;;;;;;;2.08;0.50;;;;;;;10.42;39.68;100653.63;12979659;22;20085;-70
2023/03/15 16:12:23;;;;;;;1.83;0.50;;;;;;;10.30;39.69;100645.06;12949346;22;20069;-71
2023/03/15 16:17:25;;;;;;;2.05;0.55;;;;;;;10.76;39.93;100644.53;12902521;22;20019;-70
2023/03/15 16:22:28;;;;;;;3.28;0.50;;;;;;;10.64;39.83;100653.97;12932299;22;20043;-70
2023/03/15 16:27:29;;;;;;;2.28;0.52;;;;;;;10.54;39.89;100645.25;12955288;22;20353;-70
2023/03/15 16:32:33;;;;;;;0.80;0.52;;;;;;;10.25;39.93;100651.94;12923202;22;20028;-71
2023/03/15 16:37:45;;;;;;;2.47;0.68;;;;;;;10.17;40.15;100657.28;12950102;22;20095;-71
2023/03/15 16:42:48;;;;;;;2.35;0.50;;;;;;;10.01;40.36;100661.63;12947010;22;20032;-72
2023/03/15 16:47:50;;;;;;;3.22;0.50;;;;;;;9.87;40.27;100664.94;12958724;22;20032;-72
2023/03/15 16:52:55;;;;;;;5.40;0.73;;;;;;;9.69;40.70;100665.88;12973851;22;20028;-69
2023/03/15 16:57:59;;;;;;;3.90;0.95;;;;;;;9.81;41.02;100666.41;12974079;22;20023;-70
2023/03/15 17:03:02;;;;;;;2.00;0.55;;;;;;;9.73;41.72;100678.00;12973278;22;20015;-72
2023/03/15 17:08:03;;;;;;;3.60;0.68;;;;;;;9.40;41.97;100673.47;12959702;22;20035;-69
2023/03/15 17:13:05;;;;;;;3.30;0.60;;;;;;;9.31;42.41;100676.13;12943462;22;20033;-71
2023/03/15 17:18:18;;;;;;;3.85;0.68;;;;;;;9.25;42.35;100681.28;12973402;22;20023;-70
2023/03/15 17:23:19;;;;;;;2.53;0.50;;;;;;;9.04;42.31;100695.06;12949262;22;20030;-71
2023/03/15 17:28:21;;;;;;;2.20;0.90;;;;;;;8.90;42.62;100705.34;12979599;22;20375;-71
2023/03/15 17:33:24;;;;;;;3.53;0.60;;;;;;;8.77;42.89;100701.41;12941705;22;20035;-75
2023/03/15 17:38:31;;;;;;;4.95;1.20;;;;;;;8.68;43.31;100697.81;12943978;22;20038;-73
2023/03/15 17:43:32;;;;;;;4.30;1.17;;;;;;;8.60;43.53;100711.16;12977118;22;20035;-74
2023/03/15 17:48:34;;;;;;;2.58;1.30;;;;;;;8.33;44.32;100718.22;12948832;22;20028;-75
2023/03/15 17:53:35;;;;;;;1.33;0.70;;;;;;;8.14;44.29;100720.06;12947355;22;20023;-73
2023/03/15 17:58:37;;;;;;;7.28;2.20;;;;;;;8.14;45.03;100730.78;12973782;22;20024;-73
2023/03/15 18:03:39;;;;;;;3.38;1.08;;;;;;;8.11;44.92;100730.22;12920753;22;20344;-73
2023/03/15 18:08:42;;;;;;;6.75;3.17;;;;;;;8.01;45.69;100730.28;12947150;22;20024;-72
2023/03/15 18:13:43;;;;;;;10.93;5.55;;;;;;;7.86;46.21;100737.13;12973193;22;20019;-70
2023/03/15 18:18:45;;;;;;;11.70;5.88;;;;;;;7.72;46.48;100747.34;12948892;22;20026;-69
2023/03/15 18:23:48;;;;;;;8.60;4.07;;;;;;;7.61;47.37;100752.03;12955643;22;20023;-71
2023/03/15 18:28:50;;;;;;;7.78;4.05;;;;;;;7.46;47.68;100762.34;12946475;22;20027;-72
2023/03/15 18:33:52;;;;;;;8.23;2.70;;;;;;;7.29;47.84;100764.81;12950718;22;20024;-72
2023/03/15 18:38:54;;;;;;;10.35;3.83;;;;;;;7.21;48.59;100770.03;12945447;22;20110;-72
2023/03/15 18:43:58;;;;;;;10.38;4.55;;;;;;;7.06;49.01;100771.47;12959918;22;20028;-71
2023/03/15 18:48:59;;;;;;;8.80;2.60;;;;;;;6.90;49.39;100775.53;12977071;22;20033;-72
2023/03/15 18:54:01;;;;;;;5.80;2.53;;;;;;;6.79;49.77;100786.38;12976809;22;20413;-72
2023/03/15 18:59:02;;;;;;;8.05;2.53;;;;;;;6.65;49.79;100787.63;12949308;22;20028;-73
2023/03/15 19:04:04;;;;;;;6.53;2.53;;;;;;;6.49;50.13;100784.69;12952325;22;20031;-72
2023/03/15 19:09:06;;;;;;;9.20;3.47;;;;;;;6.10;52.10;100784.59;12921437;22;20446;-72
2023/03/15 19:14:08;;;;;;;8.43;4.43;;;;;;;5.95;51.62;100790.31;12949362;22;20078;-69
2023/03/15 19:19:10;;;;;;;7.38;2.30;;;;;;;5.88;52.36;100785.63;12971029;22;20058;-69
2023/03/15 19:24:11;;;;;;;11.77;3.72;;;;;;;5.80;52.72;100791.63;12983105;22;20043;-71
2023/03/15 19:29:13;;;;;;;17.77;7.25;;;;;;;5.69;52.75;100800.56;12949419;22;20026;-72
2023/03/15 19:34:14;;;;;;;14.70;5.10;;;;;;;5.59;52.69;100805.00;12949417;22;20077;-72
2023/03/15 19:39:15;;;;;;;8.70;3.97;;;;;;;5.55;53.24;100811.59;12976012;22;20023;-72
2023/03/15 19:44:17;;;;;;;26.35;14.10;;;;;;;5.45;53.42;100824.88;12949948;22;20077;-72
2023/03/15 19:49:18;;;;;;;31.92;17.88;;;;;;;5.33;54.00;100828.56;12978429;22;20026;-72
2023/03/15 19:54:20;;;;;;;14.50;6.47;;;;;;;5.28;54.07;100833.44;12981720;22;20028;-70
2023/03/15 19:59:21;;;;;;;8.18;3.78;;;;;;;5.16;54.61;100835.31;12948558;22;20078;-72
2023/03/15 20:04:22;;;;;;;6.00;4.43;;;;;;;5.02;55.06;100832.97;12975815;22;20077;-72
2023/03/15 20:09:24;;;;;;;7.55;4.15;;;;;;;4.92;55.16;100831.06;12976166;22;20076;-71
2023/03/15 20:14:25;;;;;;;6.72;3.60;;;;;;;4.71;56.20;100838.16;12984873;22;20443;-72
2023/03/15 20:19:28;;;;;;;8.18;3.67;;;;;;;4.65;56.39;100850.16;12921362;22;20541;-72
2023/03/15 20:24:30;;;;;;;5.43;2.95;;;;;;;4.61;56.26;100847.88;12947179;22;20077;-71
2023/03/15 20:29:31;;;;;;;7.97;3.45;;;;;;;4.64;55.84;100858.28;12956356;22;20599;-73
2023/03/15 20:34:32;;;;;;;13.57;5.15;;;;;;;4.63;56.22;100852.09;12948790;22;20024;-71
2023/03/15 20:39:34;;;;;;;11.60;3.30;;;;;;;4.45;56.42;100866.91;12946211;22;20028;-71
2023/03/15 20:44:36;;;;;;;6.65;3.38;;;;;;;4.41;56.83;100853.00;12948602;22;20024;-74
2023/03/15 20:49:37;;;;;;;8.88;3.80;;;;;;;4.38;57.42;100858.56;12975001;22;20039;-72
2023/03/15 20:54:38;;;;;;;7.78;3.45;;;;;;;4.35;56.75;100866.81;12974407;22;20099;-73
2023/03/15 20:59:40;;;;;;;8.38;3.40;;;;;;;4.15;57.58;100871.06;12923788;22;20552;-72
2023/03/15 21:04:43;;;;;;;9.20;3.67;;;;;;;4.11;57.93;100870.44;12975240;22;20030;-71
2023/03/15 21:09:44;;;;;;;7.57;3.65;;;;;;;4.03;57.81;100870.22;12951450;22;20099;-75
2023/03/15 21:14:46;;;;;;;5.70;3.05;;;;;;;3.90;58.28;100874.81;12947203;22;20023;-72
2023/03/15 21:19:47;;;;;;;9.73;3.20;;;;;;;3.81;58.71;100883.47;12978830;22;20073;-70
2023/03/15 21:24:49;;;;;;;8.27;3.15;;;;;;;3.84;58.22;100872.63;12953709;22;20023;-73
2023/03/15 21:29:56;;;;;;;8.15;3.90;;;;;;;3.80;58.63;100876.50;12945831;22;20024;-73
2023/03/15 21:34:58;;;;;;;7.50;3.85;;;;;;;3.79;58.84;100875.63;12973282;22;20093;-73
2023/03/15 21:39:59;;;;;;;7.18;3.38;;;;;;;3.61;59.10;100877.88;12973349;22;20491;-73
2023/03/15 21:45:00;;;;;;;7.70;3.58;;;;;;;3.44;59.84;100884.50;12981287;22;20028;-74
2023/03/15 21:50:02;;;;;;;7.85;3.78;;;;;;;3.52;59.34;100881.28;12945269;22;20411;-71
2023/03/15 21:55:04;;;;;;;16.52;6.72;;;;;;;3.50;59.84;100892.00;12972708;22;20028;-72
2023/03/15 22:00:10;;;;;;;14.40;5.05;;;;;;;3.52;59.66;100881.28;12971993;22;20078;-72
2023/03/15 22:05:12;;;;;;;9.98;4.63;;;;;;;3.51;59.16;100869.78;12971551;22;20028;-73
2023/03/15 22:10:14;;;;;;;11.35;4.88;;;;;;;3.48;59.63;100878.00;12971581;22;20224;-72
2023/03/15 22:15:16;;;;;;;10.75;4.65;;;;;;;3.40;60.23;100879.53;12972592;22;20028;-73
2023/03/15 22:20:20;;;;;;;12.00;4.25;;;;;;;3.33;59.96;100876.50;12972639;22;20019;-73
2023/03/15 22:25:22;;;;;;;9.27;3.75;;;;;;;3.36;60.00;100868.31;12971760;22;20028;-71
2023/03/15 22:30:24;;;;;;;11.38;3.80;;;;;;;3.35;60.17;100872.75;12970843;22;20015;-71
2023/03/15 22:35:26;;;;;;;12.57;6.00;;;;;;;3.27;60.44;100877.81;12983267;22;20100;-71
2023/03/15 22:40:27;;;;;;;10.30;5.10;;;;;;;3.26;60.63;100873.47;12972111;22;20039;-71
2023/03/15 22:45:29;;;;;;;11.05;5.20;;;;;;;3.23;60.78;100881.66;12972505;22;20015;-72
2023/03/15 22:50:30;;;;;;;7.65;4.30;;;;;;;3.17;60.88;100872.34;12972255;22;20486;-71
2023/03/15 22:55:33;;;;;;;11.68;4.35;;;;;;;3.10;61.27;100867.59;12971216;22;20439;-74
2023/03/15 23:00:34;;;;;;;6.70;3.55;;;;;;;3.05;61.07;100873.25;12943749;22;20047;-71
2023/03/15 23:05:36;;;;;;;9.90;3.90;;;;;;;2.99;61.41;100879.03;12972698;22;20027;-71
2023/03/15 23:10:40;;;;;;;5.57;3.22;;;;;;;2.92;61.29;100877.78;12969918;22;20027;-71
2023/03/15 23:15:42;;;;;;;6.63;3.60;;;;;;;2.81;61.49;100875.09;12971329;22;20024;-69
2023/03/15 23:20:43;;;;;;;6.78;3.20;;;;;;;2.57;62.22;100884.72;12978061;22;20081;-70
2023/03/15 23:25:45;;;;;;;7.95;3.05;;;;;;;2.47;62.34;100882.81;12970982;22;20031;-68